Time;durP1;ratioP1;P1;durP2;ratioP2;P2;SDS_P1;SDS_P2;PMS_P1;PMS_P2;Temp;Humidity;BMP_temperature;BMP_pressure;BME280_temperature;BME280_humidity;BME280_pressure;Samples;Min_cycle;Max_cycle;Signal;HPM_P1;HPM_P2
2020/12/27 00:00:11;;;;;;;16.93;12.03;;;7.60;99.90;;;7.55;87.67;99925.44;5075213;28;20406;-68
2020/12/27 00:02:39;;;;;;;14.97;12.53;;;7.50;99.90;;;7.73;87.65;99898.13;5074058;28;20041;-68
2020/12/27 00:05:07;;;;;;;15.73;12.40;;;7.60;99.90;;;7.72;87.41;99899.91;5075196;28;20463;-68
2020/12/27 00:07:34;;;;;;;16.23;13.27;;;7.60;99.90;;;7.57;87.41;99884.22;5074893;28;20045;-68
2020/12/27 00:10:03;;;;;;;14.77;13.27;;;7.60;99.90;;;7.78;87.27;99852.44;5074873;28;20140;-68
2020/12/27 00:12:31;;;;;;;15.80;13.80;;;7.70;99.90;;;7.69;87.04;99893.75;5074628;28;20053;-67
2020/12/27 00:14:58;;;;;;;17.00;15.20;;;7.60;99.90;;;7.51;87.11;99821.13;5074711;28;20401;-69
2020/12/27 00:17:27;;;;;;;16.40;14.18;;;7.60;99.90;;;7.71;87.04;99853.41;5074682;28;20041;-75
2020/12/27 00:19:54;;;;;;;16.87;14.10;;;7.60;99.90;;;7.81;87.51;99843.66;5074581;28;20128;-74
2020/12/27 00:22:21;;;;;;;17.25;14.52;;;7.70;99.90;;;7.79;86.99;99845.44;5073776;28;20068;-75
2020/12/27 00:24:49;;;;;;;15.23;13.70;;;7.70;99.90;;;7.60;87.35;99834.22;5074816;28;20040;-75
2020/12/27 00:27:17;;;;;;;18.10;13.82;;;7.60;99.90;;;7.72;86.90;99778.84;5074798;28;20072;-75
2020/12/27 00:29:47;;;;;;;17.30;14.05;;;7.60;99.90;;;7.58;86.51;99824.59;5074745;28;20041;-75
2020/12/27 00:32:15;;;;;;;17.25;14.52;;;7.60;99.90;;;7.62;87.17;99810.50;5074668;28;20044;-75
2020/12/27 00:34:52;;;;;;;16.10;14.50;;;7.50;99.90;;;7.70;86.98;99800.78;5073392;28;20069;-75
2020/12/27 00:37:20;;;;;;;16.47;14.70;;;7.60;99.90;;;7.56;86.98;99700.94;5074236;28;20082;-75
2020/12/27 00:39:49;;;;;;;18.07;13.70;;;7.60;99.90;;;7.72;87.20;99754.28;5074289;28;20113;-75
2020/12/27 00:42:16;;;;;;;17.13;14.00;;;7.60;99.90;;;7.75;86.92;99784.06;5074707;28;20094;-75
2020/12/27 00:44:43;;;;;;;15.20;13.73;;;7.60;99.90;;;7.72;86.43;99768.31;5074443;28;20135;-75
2020/12/27 00:47:11;;;;;;;15.15;13.55;;;7.60;99.90;;;7.71;86.81;99742.00;5074389;28;20458;-74
2020/12/27 00:49:39;;;;;;;14.40;12.90;;;7.70;99.90;;;7.59;86.76;99761.41;5074541;28;20367;-75
2020/12/27 00:52:07;;;;;;;16.48;13.65;;;7.60;99.90;;;7.67;86.74;99733.25;5072789;28;20036;-75
2020/12/27 00:54:34;;;;;;;16.55;12.60;;;7.60;99.90;;;7.75;86.72;99733.19;5072952;28;20052;-74
2020/12/27 00:57:02;;;;;;;17.52;13.48;;;7.60;99.90;;;7.70;86.86;99688.50;5072854;28;20044;-75
2020/12/27 00:59:32;;;;;;;15.80;13.98;;;7.60;99.90;;;7.48;86.61;99651.94;5073139;28;20056;-75
2020/12/27 01:02:02;;;;;;;16.10;14.23;;;7.60;99.90;;;7.65;86.37;99686.78;5074161;28;20062;-75
2020/12/27 01:04:47;;;;;;;15.35;13.75;;;7.50;99.90;;;7.65;86.48;99682.41;5074153;28;20736;-75
2020/12/27 01:07:20;;;;;;;16.45;13.63;;;7.50;99.90;;;7.66;86.48;99684.16;5106581;28;20048;-75
2020/12/27 01:09:59;;;;;;;16.73;14.13;;;7.60;99.90;;;7.55;86.52;99658.88;5072539;28;20048;-75
2020/12/27 01:12:26;;;;;;;16.07;14.33;;;7.50;99.90;;;7.43;86.87;99580.97;5072609;28;20051;-75
2020/12/27 01:14:54;;;;;;;17.38;14.75;;;7.40;99.90;;;7.55;87.23;99588.69;5073886;28;20044;-75
2020/12/27 01:17:41;;;;;;;17.30;14.20;;;7.40;99.90;;;7.44;87.44;99595.84;5073424;28;20087;-75
2020/12/27 01:20:10;;;;;;;17.80;16.00;;;7.50;99.90;;;7.51;87.92;99587.00;5072436;28;20046;-75
2020/12/27 01:22:39;;;;;;;17.53;14.60;;;7.40;99.90;;;7.32;87.35;99578.47;5072382;28;20494;-77
2020/12/27 01:25:17;;;;;;;18.00;15.37;;;7.30;99.90;;;7.18;88.11;99459.44;5073786;28;20044;-77
2020/12/27 01:27:45;;;;;;;16.90;14.13;;;7.30;99.90;;;7.26;88.18;99556.63;5072026;28;20072;-77
2020/12/27 01:30:14;;;;;;;16.63;14.63;;;7.20;99.90;;;7.35;88.08;99564.41;5106014;28;20055;-76
2020/12/27 01:32:48;;;;;;;19.23;14.03;;;7.20;99.90;;;7.10;88.16;99529.66;5072268;28;20052;-76
2020/12/27 01:35:36;;;;;;;19.40;14.33;;;7.20;99.90;;;7.25;87.72;99554.91;5072507;28;20133;-76
2020/12/27 01:38:05;;;;;;;17.63;14.60;;;7.20;99.90;;;7.29;87.70;99525.94;5071677;28;20479;-76
2020/12/27 01:40:32;;;;;;;17.50;14.93;;;7.20;99.90;;;7.31;87.77;99512.75;5071861;28;20040;-75
2020/12/27 01:43:00;;;;;;;15.67;14.07;;;7.20;99.90;;;7.03;87.81;99498.19;5071980;28;20125;-76
2020/12/27 01:45:28;;;;;;;20.87;16.13;;;7.20;99.90;;;7.26;87.67;99515.44;5071951;28;20079;-75
2020/12/27 01:48:12;;;;;;;18.23;14.83;;;7.20;99.90;;;7.23;87.36;99504.97;5071639;28;20041;-75
2020/12/27 01:50:43;;;;;;;17.73;15.43;;;7.20;99.90;;;7.28;87.22;99487.34;5073130;28;20056;-75
2020/12/27 01:53:13;;;;;;;21.50;16.83;;;7.20;99.90;;;7.14;87.13;99480.56;5071807;28;20160;-76
2020/12/27 01:55:41;;;;;;;19.90;16.13;;;7.20;99.90;;;7.23;87.15;99520.75;5071728;28;20054;-75
2020/12/27 01:58:19;;;;;;;18.10;15.27;;;7.20;99.90;;;7.21;87.03;99446.28;5073141;28;20040;-75
2020/12/27 02:01:04;;;;;;;21.03;16.50;;;7.20;99.90;;;7.24;87.24;99446.22;5105451;28;20045;-75
2020/12/27 02:03:38;;;;;;;18.40;15.73;;;7.20;99.90;;;7.17;87.27;99448.97;5071459;28;20044;-75
2020/12/27 02:06:13;;;;;;;18.10;15.83;;;7.10;99.90;;;7.13;87.11;99428.84;5071461;28;20071;-76
2020/12/27 02:08:45;;;;;;;19.83;16.07;;;7.10;99.90;;;7.23;86.77;99396.28;5071599;28;20048;-75
2020/12/27 02:11:25;;;;;;;19.27;15.80;;;7.10;99.90;;;7.01;87.04;99443.03;5071146;28;20050;-74
2020/12/27 02:13:56;;;;;;;22.43;15.17;;;7.10;99.90;;;7.02;86.96;99393.97;5071249;28;20041;-74
2020/12/27 02:16:28;;;;;;;20.23;15.20;;;7.10;99.90;;;7.13;87.22;99373.66;5071308;28;20044;-75
2020/12/27 02:19:14;;;;;;;23.30;15.67;;;7.00;99.90;;;7.09;87.10;99395.63;5072767;28;20125;-75
2020/12/27 02:21:46;;;;;;;20.07;16.07;;;7.00;99.90;;;6.81;87.07;99333.84;5071389;28;20597;-75
2020/12/27 02:24:35;;;;;;;19.23;15.70;;;7.00;99.90;;;7.10;87.48;99350.06;5071411;28;20394;-75
2020/12/27 02:27:05;;;;;;;16.93;15.13;;;7.00;99.90;;;7.03;87.70;99353.63;5071223;28;20054;-75
2020/12/27 02:29:34;;;;;;;;;;;7.00;99.90;;;6.74;87.80;99314.66;5072930;28;20052;-75
2020/12/27 02:32:04;;;;;;;20.10;15.07;;;6.90;99.90;;;6.94;88.32;99343.28;5071257;28;19925;-75
2020/12/27 02:34:32;;;;;;;18.47;16.50;;;6.90;99.90;;;6.95;88.81;99361.63;5071162;28;20456;-74
2020/12/27 02:37:00;;;;;;;20.60;15.13;;;6.90;99.90;;;6.94;89.15;99324.88;5070876;28;20071;-75
2020/12/27 02:39:42;;;;;;;21.70;16.60;;;6.80;99.90;;;6.97;88.99;99304.66;5071465;28;20110;-75
2020/12/27 02:42:10;;;;;;;20.23;15.20;;;6.90;99.90;;;7.01;89.07;99281.81;5071966;28;20560;-76
2020/12/27 02:44:56;;;;;;;18.33;15.10;;;6.90;99.90;;;7.02;89.10;99273.94;5071073;28;20041;-76
2020/12/27 02:47:47;;;;;;;20.57;15.13;;;6.90;99.90;;;6.94;89.11;99251.28;5071885;28;20044;-79
2020/12/27 02:50:34;;;;;;;17.87;15.03;;;6.90;99.90;;;6.73;89.52;99262.13;5070949;28;20124;-77
2020/12/27 02:53:03;;;;;;;18.43;14.57;;;6.80;99.90;;;6.89;90.02;99271.53;5070924;28;20085;-76
2020/12/27 02:55:32;;;;;;;19.03;14.83;;;6.80;99.90;;;6.73;90.30;99230.63;5070912;28;20041;-75
2020/12/27 02:58:00;;;;;;;19.23;15.43;;;6.80;99.90;;;6.88;90.20;99233.88;5070950;28;20560;-75
2020/12/27 03:00:32;;;;;;;;;;;6.80;99.90;;;6.86;90.54;99214.63;5071121;28;20040;-74
2020/12/27 03:03:17;;;;;;;19.90;15.47;;;6.80;99.90;;;6.81;90.88;99184.94;5072244;28;19927;-75
2020/12/27 03:05:52;;;;;;;17.77;15.10;;;6.70;99.90;;;6.77;91.27;99188.53;5070927;28;20114;-75
2020/12/27 03:08:21;;;;;;;16.20;14.47;;;6.80;99.90;;;6.74;91.58;99187.66;5071899;28;20452;-76
2020/12/27 03:10:58;;;;;;;20.83;15.40;;;6.70;99.90;;;6.71;91.82;99256.03;5070643;28;20047;-76
2020/12/27 03:13:27;;;;;;;19.63;15.80;;;6.70;99.90;;;6.74;92.37;99185.03;5070855;28;20055;-75
2020/12/27 03:15:55;;;;;;;16.77;14.55;;;6.70;99.90;;;6.69;92.28;99174.63;5070797;28;20052;-75
2020/12/27 03:18:41;;;;;;;20.40;15.40;;;6.70;99.90;;;6.58;92.67;99123.16;5075911;28;20060;-75
2020/12/27 03:21:31;;;;;;;18.70;14.02;;;6.70;99.90;;;6.78;92.54;99163.09;5074501;28;20052;-74
2020/12/27 03:24:00;;;;;;;17.83;13.97;;;6.70;99.90;;;6.77;92.51;99151.75;5074742;28;20079;-74
2020/12/27 03:26:34;;;;;;;18.27;14.77;;;6.70;99.90;;;6.78;92.73;99134.19;5074700;28;20040;-73
2020/12/27 03:29:02;;;;;;;16.87;14.03;;;6.70;99.90;;;6.72;92.78;99097.50;5074536;28;20114;-73
2020/12/27 03:31:30;;;;;;;17.03;13.40;;;6.70;99.90;;;6.66;92.88;99097.66;5074452;28;20044;-73
2020/12/27 03:34:05;;;;;;;17.47;12.60;;;6.70;99.90;;;6.86;93.05;99113.91;5074206;28;20048;-73
2020/12/27 03:36:45;;;;;;;17.20;13.17;;;6.80;99.90;;;6.74;93.00;99059.84;5074471;28;20059;-72
2020/12/27 03:39:33;;;;;;;17.40;11.63;;;6.80;99.90;;;6.69;93.11;99035.41;5075296;28;20040;-73
2020/12/27 03:42:23;;;;;;;17.17;12.27;;;6.80;99.90;;;6.90;93.24;99126.09;5074289;28;20049;-72
2020/12/27 03:44:59;;;;;;;14.00;11.23;;;6.80;99.90;;;6.96;93.37;99053.28;5074325;28;20052;-72
2020/12/27 03:48:01;;;;;;;12.87;11.57;;;6.80;99.90;;;6.96;93.02;99081.31;5072938;28;20502;-72
2020/12/27 03:50:58;;;;;;;13.87;11.60;;;6.90;99.90;;;6.87;92.94;99010.56;5070194;28;20044;-73
2020/12/27 03:53:27;;;;;;;13.13;11.83;;;6.80;99.90;;;6.97;93.17;99030.47;5073847;28;20051;-72
2020/12/27 03:55:59;;;;;;;13.10;11.63;;;6.90;99.90;;;6.76;92.99;98973.09;5074123;28;20131;-73
2020/12/27 03:58:54;;;;;;;15.40;11.43;;;6.80;99.90;;;6.83;93.03;98966.84;5074094;28;20139;-72
2020/12/27 04:01:40;;;;;;;13.63;10.97;;;6.80;99.90;;;6.93;92.89;98929.00;5074292;28;20401;-73
2020/12/27 04:04:08;;;;;;;13.90;11.30;;;6.80;99.90;;;6.96;92.89;98970.97;5074987;28;20493;-72
2020/12/27 04:06:36;;;;;;;17.50;12.13;;;6.90;99.90;;;6.35;92.40;98871.50;5073849;28;20525;-73
2020/12/27 04:09:22;;;;;;;11.65;10.45;;;6.90;99.90;;;6.91;92.34;98946.56;5074854;28;20186;-73
2020/12/27 04:11:49;;;;;;;11.10;9.57;;;6.90;99.90;;;6.98;92.57;98940.25;5073750;28;20127;-73
2020/12/27 04:14:18;;;;;;;13.37;11.00;;;6.90;99.90;;;6.84;92.65;98947.56;5073456;28;20433;-73
2020/12/27 04:16:46;;;;;;;14.73;10.65;;;6.90;99.90;;;7.00;92.68;98905.19;5075010;28;20040;-73
2020/12/27 04:19:15;;;;;;;14.60;9.83;;;6.90;99.90;;;6.99;92.44;98900.78;5073593;28;20486;-72
2020/12/27 04:22:00;;;;;;;12.30;9.97;;;6.90;99.90;;;6.85;92.45;98855.56;5073724;28;20048;-73
2020/12/27 04:24:37;;;;;;;11.40;9.73;;;6.90;99.90;;;7.07;93.02;98887.47;5073628;28;20041;-73
2020/12/27 04:27:08;;;;;;;12.93;11.07;;;7.00;99.90;;;7.02;92.76;98849.94;5072996;28;20117;-73
2020/12/27 04:29:37;;;;;;;11.57;10.33;;;7.00;99.90;;;7.02;92.52;98856.06;5073345;28;20045;-72
2020/12/27 04:32:04;;;;;;;11.60;10.13;;;7.00;99.90;;;6.99;92.76;98837.72;5073171;28;20490;-73
2020/12/27 04:35:02;;;;;;;14.10;9.73;;;7.00;99.90;;;7.02;92.64;98813.16;5069534;28;20139;-73
2020/12/27 04:37:34;;;;;;;11.47;9.63;;;6.90;99.90;;;7.04;92.80;98814.84;5074405;28;20056;-72
2020/12/27 04:40:10;;;;;;;13.87;9.83;;;7.00;99.90;;;7.01;92.53;98787.75;5073253;28;20040;-73
2020/12/27 04:42:42;;;;;;;10.43;9.13;;;7.00;99.90;;;6.93;92.06;98797.63;5073336;28;20071;-72
2020/12/27 04:45:13;;;;;;;11.17;8.87;;;7.00;99.90;;;7.02;92.36;98731.69;5073193;28;20505;-73
2020/12/27 04:48:01;;;;;;;12.23;8.90;;;7.00;99.90;;;7.05;92.33;98820.94;5073998;28;20051;-71
2020/12/27 04:50:55;;;;;;;11.27;9.37;;;7.00;99.90;;;7.01;92.18;98735.19;5073117;28;20049;-72
2020/12/27 04:53:22;;;;;;;12.37;10.03;;;7.00;99.90;;;7.08;91.75;98718.41;5072658;28;20053;-73
2020/12/27 04:55:53;;;;;;;10.32;8.27;;;7.00;99.90;;;7.10;91.80;98716.59;5072968;28;20146;-72
2020/12/27 04:58:49;;;;;;;10.73;9.13;;;7.00;99.90;;;7.09;91.86;98717.47;5072872;28;20502;-72
2020/12/27 05:01:24;;;;;;;11.47;8.77;;;7.10;99.90;;;7.06;91.68;98671.13;5072945;28;20109;-72
2020/12/27 05:04:18;;;;;;;11.75;8.02;;;7.00;99.90;;;7.13;91.55;98717.38;5072825;28;20148;-72
2020/12/27 05:06:57;;;;;;;9.17;8.17;;;7.10;99.90;;;7.16;91.69;98674.41;5072835;28;20082;-73
2020/12/27 05:09:35;;;;;;;9.20;7.80;;;7.10;99.90;;;7.15;91.30;98672.66;5072680;28;20049;-73
2020/12/27 05:12:03;;;;;;;10.57;7.43;;;7.10;99.90;;;7.18;91.43;98648.94;5072244;28;20518;-72
2020/12/27 05:14:30;;;;;;;9.80;7.87;;;7.10;99.90;;;7.14;91.11;98690.19;5072626;28;20407;-72
2020/12/27 05:17:00;;;;;;;8.00;7.23;;;7.10;99.90;;;7.12;91.17;98670.97;5072551;28;20055;-73
2020/12/27 05:19:45;;;;;;;9.17;8.23;;;7.10;99.90;;;7.16;90.99;98679.66;5072489;28;20048;-73
2020/12/27 05:22:13;;;;;;;8.50;7.70;;;7.10;99.90;;;7.15;91.46;98606.94;5072458;28;20056;-73
2020/12/27 05:25:06;;;;;;;8.57;7.37;;;7.10;99.90;;;7.18;91.34;98615.59;5072260;28;20040;-73
2020/12/27 05:27:51;;;;;;;7.77;7.07;;;7.10;99.90;;;7.19;91.11;98571.78;5072660;28;20379;-73
2020/12/27 05:30:37;;;;;;;7.43;6.63;;;7.10;99.90;;;7.06;90.69;98567.78;5072151;28;20041;-73
2020/12/27 05:33:26;;;;;;;7.80;7.10;;;7.10;99.90;;;7.17;91.00;98594.63;5073581;28;20055;-73
2020/12/27 05:36:15;;;;;;;7.20;6.50;;;7.10;99.90;;;7.15;91.21;98557.00;5072182;28;20048;-73
2020/12/27 05:38:48;;;;;;;9.57;6.90;;;7.10;99.90;;;7.21;91.37;98559.47;5070962;28;20052;-73
2020/12/27 05:41:34;;;;;;;6.55;5.97;;;7.20;99.90;;;7.18;91.40;98556.94;5073303;28;20064;-73
2020/12/27 05:44:17;;;;;;;12.43;7.30;;;7.10;99.90;;;7.20;91.30;98540.19;5072070;28;20044;-74
2020/12/27 05:46:45;;;;;;;;;;;7.10;99.90;;;7.12;91.10;98517.69;5072470;28;20049;-73
2020/12/27 05:49:19;;;;;;;7.33;6.30;;;7.10;99.90;;;7.17;91.55;98500.00;5105881;28;19958;-73
2020/12/27 05:51:55;;;;;;;6.50;5.80;;;7.10;99.90;;;7.23;91.73;98505.09;5071863;28;20056;-73
2020/12/27 05:54:32;;;;;;;6.50;6.00;;;7.10;99.90;;;6.39;91.24;98377.91;5071604;28;20049;-73
2020/12/27 05:57:04;;;;;;;5.90;5.40;;;7.10;99.90;;;7.01;91.11;98472.44;5071841;28;20507;-73
2020/12/27 05:59:35;;;;;;;5.97;5.47;;;7.10;99.90;;;7.12;91.75;98423.91;5071694;28;20060;-73
2020/12/27 06:02:40;;;;;;;5.65;5.18;;;7.10;99.90;;;7.17;92.18;98442.19;5071739;28;20093;-73
2020/12/27 06:05:50;;;;;;;6.30;5.80;;;7.10;99.90;;;6.93;92.04;98433.25;5105527;28;20472;-72
2020/12/27 06:09:08;;;;;;;5.53;5.13;;;7.10;99.90;;;7.18;91.84;98446.53;5071284;28;20493;-73
2020/12/27 06:11:54;;;;;;;5.18;4.50;;;7.10;99.90;;;7.14;91.97;98450.16;5072927;28;20046;-73
2020/12/27 06:14:39;;;;;;;6.37;5.30;;;7.10;99.90;;;6.84;91.62;98382.75;5071422;28;20056;-74
2020/12/27 06:17:54;;;;;;;5.80;4.97;;;7.10;99.90;;;7.10;91.71;98415.22;5072762;28;20048;-73
2020/12/27 06:21:10;;;;;;;5.60;5.10;;;7.10;99.90;;;7.13;92.19;98415.13;5030231;28;20049;-74
2020/12/27 06:23:56;;;;;;;5.63;4.77;;;7.10;99.90;;;7.13;92.18;98375.72;5070324;28;20163;-72
2020/12/27 06:26:30;;;;;;;5.37;4.83;;;7.10;99.90;;;6.97;92.29;98327.16;5071525;28;20463;-72
2020/12/27 06:29:13;;;;;;;5.60;5.10;;;7.10;99.90;;;7.14;92.31;98358.19;5071301;28;20048;-73
2020/12/27 06:31:50;;;;;;;5.43;5.03;;;7.10;99.90;;;7.14;92.33;98405.50;5071087;28;20051;-71
2020/12/27 06:34:43;;;;;;;4.63;4.33;;;7.10;99.90;;;5.59;92.07;98110.91;5070848;28;20433;-72
2020/12/27 06:37:17;;;;;;;5.33;4.90;;;7.10;99.90;;;7.02;91.92;98325.25;5070914;28;20056;-73
2020/12/27 06:40:07;;;;;;;5.37;4.97;;;7.10;99.90;;;7.09;92.26;98318.03;5071921;28;20044;-72
2020/12/27 06:43:19;;;;;;;4.60;4.30;;;7.10;99.90;;;7.16;92.09;98257.34;5063015;28;20080;-71
2020/12/27 06:46:25;;;;;;;5.00;4.67;;;7.10;99.90;;;7.14;92.06;98368.69;5104955;28;20048;-74
2020/12/27 06:49:12;;;;;;;4.95;4.47;;;7.20;99.90;;;7.18;92.14;98265.19;5071073;28;20050;-73
2020/12/27 06:51:55;;;;;;;5.40;4.50;;;7.10;99.90;;;7.22;92.03;98320.22;5071752;28;20453;-72
2020/12/27 06:54:47;;;;;;;4.70;4.30;;;7.10;99.90;;;7.24;91.59;98252.69;5071036;28;20083;-73
2020/12/27 06:57:46;;;;;;;4.80;4.40;;;7.20;99.90;;;7.11;91.82;98206.72;5070700;28;20055;-73
2020/12/27 07:00:42;;;;;;;6.65;4.13;;;7.20;99.90;;;7.17;91.58;98229.28;5068346;28;20048;-73
2020/12/27 07:03:21;;;;;;;4.93;4.50;;;7.20;99.90;;;7.05;91.75;98234.94;5070885;28;20049;-73
2020/12/27 07:05:50;;;;;;;4.70;4.25;;;7.20;99.90;;;7.25;91.54;98230.78;5072438;28;20045;-74
2020/12/27 07:08:43;;;;;;;5.37;4.87;;;7.20;99.90;;;7.19;91.39;98175.78;5072110;28;20036;-74
2020/12/27 07:11:11;;;;;;;5.25;4.75;;;7.30;99.90;;;7.04;90.81;98159.66;5070602;28;20052;-73
2020/12/27 07:13:41;;;;;;;4.40;4.03;;;7.30;99.90;;;7.27;91.20;98213.19;5072100;28;20036;-75
2020/12/27 07:16:12;;;;;;;4.40;4.07;;;7.30;99.90;;;7.31;91.18;98195.53;5072010;28;20413;-74
2020/12/27 07:18:39;;;;;;;4.75;4.22;;;7.30;99.90;;;7.37;91.20;98308.38;5071989;28;20068;-75
2020/12/27 07:21:13;;;;;;;4.47;4.03;;;7.30;99.90;;;7.37;90.91;98268.06;5071743;28;20090;-74
2020/12/27 07:23:49;;;;;;;4.70;4.30;;;7.30;99.90;;;5.35;90.71;97839.97;5071840;28;20505;-75
2020/12/27 07:26:17;;;;;;;4.87;3.90;;;7.30;99.90;;;6.94;91.20;98110.97;5071711;28;20125;-74
2020/12/27 07:28:46;;;;;;;6.38;4.65;;;7.30;99.90;;;7.40;91.39;98158.38;5071856;28;20468;-74
2020/12/27 07:31:19;;;;;;;6.93;4.37;;;7.40;99.90;;;7.14;91.40;98109.34;5071843;28;20041;-75
2020/12/27 07:33:47;;;;;;;4.67;4.33;;;7.40;99.90;;;7.46;91.45;98167.81;5070672;28;20045;-75
2020/12/27 07:36:15;;;;;;;5.55;4.22;;;7.40;99.90;;;7.42;91.19;98140.78;5071802;28;20044;-74
2020/12/27 07:39:03;;;;;;;5.03;4.37;;;7.40;99.90;;;7.46;91.22;98123.13;5071607;28;20106;-74
2020/12/27 07:41:34;;;;;;;4.43;4.03;;;7.40;99.90;;;7.30;91.41;98113.16;5071543;28;20389;-75
2020/12/27 07:44:02;;;;;;;5.20;4.17;;;7.40;99.90;;;7.45;91.37;98148.59;5072172;28;20398;-74
2020/12/27 07:46:29;;;;;;;4.63;3.33;;;7.40;99.90;;;7.44;91.59;98110.03;5071511;28;20071;-75
2020/12/27 07:48:56;;;;;;;6.30;4.30;;;7.40;99.90;;;7.51;91.53;98029.19;5071431;28;20053;-75
2020/12/27 07:51:25;;;;;;;4.87;4.47;;;7.50;99.90;;;7.61;91.36;98091.00;5071316;28;20608;-75
2020/12/27 07:53:54;;;;;;;4.27;3.87;;;7.50;99.90;;;7.60;91.83;98058.63;5071607;28;20059;-74
2020/12/27 07:56:24;;;;;;;6.13;4.40;;;7.50;99.90;;;7.62;91.80;98053.28;5071632;28;20040;-74
2020/12/27 07:58:53;;;;;;;4.97;4.18;;;7.50;99.90;;;7.57;91.73;98053.44;5071685;28;20053;-73
2020/12/27 08:01:25;;;;;;;6.43;4.00;;;7.50;99.90;;;7.67;91.48;98088.16;5071684;28;20090;-74
2020/12/27 08:03:55;;;;;;;4.13;3.83;;;7.60;99.90;;;7.40;91.54;97984.88;5074589;28;20052;-74
2020/12/27 08:06:25;;;;;;;4.40;4.00;;;7.50;99.90;;;7.35;91.26;98036.78;5074976;28;20502;-72
2020/12/27 08:09:03;;;;;;;4.10;3.72;;;7.50;99.90;;;7.45;91.47;98014.50;5074982;28;20048;-74
2020/12/27 08:11:33;;;;;;;4.63;4.33;;;7.50;99.90;;;7.59;90.87;98033.22;5074774;28;20056;-74
2020/12/27 08:14:02;;;;;;;4.90;4.25;;;7.50;99.90;;;7.58;91.36;98005.22;5075132;28;20131;-74
2020/12/27 08:16:31;;;;;;;5.28;4.25;;;7.50;99.90;;;7.58;91.53;98005.22;5074781;28;20040;-75
2020/12/27 08:19:06;;;;;;;4.60;4.20;;;7.50;99.90;;;7.57;91.72;98000.84;5074946;28;20401;-75
2020/12/27 08:21:35;;;;;;;4.03;3.80;;;7.50;99.90;;;7.63;91.58;98066.38;5075054;28;20048;-74
2020/12/27 08:24:18;;;;;;;5.35;4.05;;;7.60;99.90;;;7.61;91.29;98015.59;5074997;28;20044;-75
2020/12/27 08:26:48;;;;;;;5.93;4.43;;;7.50;99.90;;;7.58;91.00;97991.22;5074946;28;20064;-69
2020/12/27 08:29:17;;;;;;;4.50;4.20;;;7.60;99.90;;;7.64;90.84;97975.19;5074763;28;20197;-69
2020/12/27 08:31:46;;;;;;;4.77;3.97;;;7.60;99.90;;;7.61;89.97;97970.91;5074591;28;20044;-69
2020/12/27 08:34:16;;;;;;;5.25;3.70;;;7.60;99.90;;;7.62;90.17;97958.63;5074693;28;20367;-67
2020/12/27 08:36:48;;;;;;;4.43;4.07;;;7.60;99.90;;;7.68;90.45;97901.38;5074577;28;20417;-69
2020/12/27 08:39:23;;;;;;;5.73;4.40;;;7.60;99.90;;;7.73;89.70;97936.22;5074133;28;20060;-69
2020/12/27 08:42:02;;;;;;;3.70;3.40;;;7.60;99.90;;;7.67;89.63;97925.94;5074264;28;20048;-68
2020/12/27 08:44:47;;;;;;;4.25;3.95;;;7.60;99.90;;;7.76;89.55;97974.72;5074289;28;20040;-69
2020/12/27 08:47:34;;;;;;;4.45;4.05;;;7.70;99.90;;;7.72;89.27;97984.50;5074717;28;20556;-69
2020/12/27 08:50:06;;;;;;;4.78;4.38;;;7.70;99.90;;;7.83;89.68;97903.38;5073159;28;20375;-69
2020/12/27 08:52:34;;;;;;;4.37;4.17;;;7.70;99.90;;;7.80;89.23;97906.13;5072937;28;20063;-71
2020/12/27 08:55:05;;;;;;;5.30;4.05;;;7.70;99.90;;;7.81;89.37;97956.97;5074061;28;20078;-70
2020/12/27 08:57:33;;;;;;;4.40;4.10;;;7.70;99.90;;;7.84;89.09;97935.81;5073996;28;20044;-69
2020/12/27 09:00:08;;;;;;;4.82;4.43;;;7.80;99.90;;;7.55;89.54;97842.28;5073942;28;20448;-70
2020/12/27 09:02:37;;;;;;;4.47;4.07;;;7.70;99.90;;;7.78;89.41;97850.06;5074189;28;20082;-71
2020/12/27 09:05:08;;;;;;;5.23;4.47;;;7.70;99.90;;;7.57;89.45;97858.84;5073822;28;20040;-70
2020/12/27 09:07:37;;;;;;;;;;;7.70;99.90;;;7.65;89.04;97888.34;5074577;28;20497;-68
2020/12/27 09:10:21;;;;;;;5.25;4.43;;;7.70;99.90;;;7.72;88.90;97825.81;5072629;28;20482;-70
2020/12/27 09:13:01;;;;;;;4.57;4.30;;;7.80;99.90;;;7.85;88.35;97879.63;5074051;28;20101;-70
2020/12/27 09:15:31;;;;;;;4.30;4.05;;;7.80;99.90;;;7.92;88.56;97836.34;5072727;28;20098;-69
2020/12/27 09:18:01;;;;;;;4.00;3.60;;;7.90;99.90;;;7.84;88.05;97836.69;5072523;28;20049;-70
2020/12/27 09:20:30;;;;;;;4.55;4.13;;;7.80;99.90;;;7.77;87.97;97774.72;5073921;28;20649;-71
2020/12/27 09:22:58;;;;;;;4.35;4.05;;;7.80;99.90;;;7.87;87.83;97819.91;5073715;28;20044;-70
2020/12/27 09:25:27;;;;;;;5.47;3.85;;;7.90;99.90;;;8.05;87.93;97788.38;5073468;28;20048;-71
2020/12/27 09:27:55;;;;;;;4.88;4.47;;;7.90;99.90;;;7.99;87.54;97819.41;5073412;28;20040;-72
2020/12/27 09:30:26;;;;;;;4.80;3.83;;;8.00;99.90;;;7.94;86.99;97822.22;5073250;28;20109;-72
2020/12/27 09:33:01;;;;;;;4.50;4.20;;;8.00;99.90;;;8.10;87.58;97832.94;5073608;28;20041;-71
2020/12/27 09:35:29;;;;;;;5.68;4.85;;;8.00;99.90;;;8.00;87.58;97774.59;5073569;28;20052;-69
2020/12/27 09:37:56;;;;;;;3.60;3.40;;;8.00;99.90;;;8.03;87.24;97781.50;5073015;28;20490;-69
2020/12/27 09:40:35;;;;;;;4.50;4.07;;;8.10;99.90;;;8.13;87.25;97781.00;5073424;28;20072;-69
2020/12/27 09:43:04;;;;;;;5.80;4.20;;;8.10;99.90;;;7.64;86.74;97663.09;5073230;28;20057;-69
2020/12/27 09:45:33;;;;;;;3.92;3.63;;;8.10;99.90;;;8.18;86.77;97765.91;5072943;28;20044;-69
2020/12/27 09:48:03;;;;;;;3.90;3.60;;;8.10;99.90;;;8.25;87.00;97732.25;5072784;28;20135;-72
2020/12/27 09:50:35;;;;;;;4.60;4.20;;;8.20;99.90;;;8.20;86.44;97750.88;5071734;28;20059;-68
2020/12/27 09:53:04;;;;;;;4.47;4.10;;;8.10;99.90;;;7.99;86.00;97701.81;5072693;28;20118;-68
2020/12/27 09:55:35;;;;;;;4.20;3.90;;;8.10;99.90;;;8.23;86.28;97756.94;5072917;28;20102;-72
2020/12/27 09:58:02;;;;;;;5.10;3.80;;;8.10;99.90;;;8.21;86.09;97728.88;5072715;28;20036;-73
2020/12/27 10:00:29;;;;;;;4.10;3.70;;;8.10;99.90;;;8.25;85.75;97732.25;5071465;28;20131;-72
2020/12/27 10:02:57;;;;;;;3.67;3.47;;;8.20;99.90;;;8.30;86.35;97763.66;5072633;28;20118;-68
2020/12/27 10:05:25;;;;;;;4.25;3.90;;;8.20;99.90;;;8.21;85.87;97702.56;5072501;28;20120;-70
2020/12/27 10:07:52;;;;;;;4.35;4.05;;;8.20;99.90;;;8.11;85.69;97734.63;5072763;28;20040;-68
2020/12/27 10:10:19;;;;;;;4.38;3.58;;;8.10;99.90;;;8.19;86.43;97686.00;5072502;28;20541;-68
2020/12/27 10:12:47;;;;;;;4.78;3.40;;;8.20;99.90;;;8.07;86.28;97776.00;5072900;28;20504;-69
2020/12/27 10:15:15;;;;;;;4.35;3.95;;;8.10;99.90;;;8.23;86.02;97709.56;5072646;28;20066;-67
2020/12/27 10:17:42;;;;;;;3.85;3.60;;;8.10;99.90;;;8.19;85.99;97669.34;5072590;28;20109;-68
2020/12/27 10:20:10;;;;;;;4.15;3.85;;;8.10;99.90;;;8.16;86.03;97724.75;5072622;28;20094;-69
2020/12/27 10:22:38;;;;;;;3.92;3.65;;;8.10;99.90;;;8.10;85.95;97662.72;5071465;28;20063;-70
2020/12/27 10:25:07;;;;;;;5.47;3.65;;;8.10;99.90;;;8.23;86.43;97666.50;5071814;28;20494;-69
2020/12/27 10:27:35;;;;;;;6.43;4.32;;;8.10;99.90;;;8.19;86.28;97620.19;5072204;28;20110;-69
2020/12/27 10:30:05;;;;;;;4.15;3.72;;;8.10;99.90;;;8.14;86.54;97637.97;5071056;28;20044;-76
2020/12/27 10:32:33;;;;;;;3.85;3.55;;;8.10;99.90;;;8.04;86.47;97626.16;5072038;28;20055;-68
2020/12/27 10:35:00;;;;;;;4.10;3.70;;;8.10;99.90;;;8.04;86.19;97649.00;5072069;28;20041;-67
2020/12/27 10:37:28;;;;;;;4.20;3.80;;;8.10;99.90;;;8.26;86.72;97675.22;5071806;28;20494;-67
2020/12/27 10:39:56;;;;;;;4.78;4.22;;;8.20;99.90;;;8.01;86.19;97615.78;5072226;28;20401;-67
2020/12/27 10:42:23;;;;;;;4.50;4.15;;;8.10;99.90;;;8.27;86.52;97645.31;5071962;28;20056;-69
2020/12/27 10:44:51;;;;;;;4.38;3.97;;;8.20;99.90;;;8.25;86.73;97568.19;5072133;28;20097;-68
2020/12/27 10:47:18;;;;;;;4.43;3.58;;;8.10;99.90;;;8.20;87.01;97653.50;5071925;28;20460;-70
2020/12/27 10:49:45;;;;;;;6.10;4.47;;;8.10;99.90;;;8.32;87.24;97651.22;5071863;28;20490;-68
2020/12/27 10:52:13;;;;;;;4.97;4.25;;;8.20;99.90;;;8.30;87.18;97666.25;5071721;28;20516;-68
2020/12/27 10:54:41;;;;;;;5.03;4.03;;;8.20;99.90;;;8.17;87.47;97624.66;5072192;28;20127;-69
2020/12/27 10:57:08;;;;;;;5.90;4.07;;;8.10;99.90;;;7.97;87.58;97616.00;5072145;28;20127;-70
2020/12/27 10:59:36;;;;;;;4.95;4.47;;;8.10;99.90;;;8.22;88.28;97621.81;5072105;28;20072;-70